Terminal Aerodrome Forecast
Issued by NWS

Home | Current Version | Previous Version | Text Only | Print | Product List | Glossary On
Versions: 1 2 3 4 5 6 7 8 9 10 11 12 13 14 15 16 17 18 19 20
326
FTUS44 KTSA 171738
TAFMLC
TAF
KMLC 171738Z 1718/1818 30005KT P6SM OVC012
     FM172000 30005KT P6SM BKN250
     FM180000 00000KT P6SM SCT150 BKN250
     FM180400 00000KT P6SM SCT040 BKN120 PROB30 1804/1810 5SM -RA BR
      BKN030
     FM181000 00000KT P6SM OVC015
     FM181400 00000KT 5SM BR OVC007=

USA.gov is the U.S. government's official web portal to all federal, state and local government web resources and services.